sensor_id;sensor_type;location;lat;lon;timestamp;P1;durP1;ratioP1;P2;durP2;ratioP2
60730;SDS011;46580;52.114;11.674;2022-11-15T00:01:49;20.37;;;11.80;;
60730;SDS011;46580;52.114;11.674;2022-11-15T00:04:14;17.77;;;11.47;;
60730;SDS011;46580;52.114;11.674;2022-11-15T00:06:39;17.63;;;11.30;;
60730;SDS011;46580;52.114;11.674;2022-11-15T00:09:05;19.07;;;11.43;;
60730;SDS011;46580;52.114;11.674;2022-11-15T00:11:30;19.27;;;11.70;;
60730;SDS011;46580;52.114;11.674;2022-11-15T00:13:56;19.70;;;11.73;;
60730;SDS011;46580;52.114;11.674;2022-11-15T00:16:22;17.47;;;10.63;;
60730;SDS011;46580;52.114;11.674;2022-11-15T00:18:48;19.20;;;11.73;;
60730;SDS011;46580;52.114;11.674;2022-11-15T00:21:13;18.23;;;10.77;;
60730;SDS011;46580;52.114;11.674;2022-11-15T00:23:40;18.43;;;10.80;;
60730;SDS011;46580;52.114;11.674;2022-11-15T00:26:05;21.03;;;11.77;;
60730;SDS011;46580;52.114;11.674;2022-11-15T00:28:31;20.07;;;12.27;;
60730;SDS011;46580;52.114;11.674;2022-11-15T00:31:04;17.67;;;12.07;;
60730;SDS011;46580;52.114;11.674;2022-11-15T00:33:32;20.93;;;13.40;;
60730;SDS011;46580;52.114;11.674;2022-11-15T00:35:59;20.17;;;11.93;;
60730;SDS011;46580;52.114;11.674;2022-11-15T00:38:36;16.57;;;10.70;;
60730;SDS011;46580;52.114;11.674;2022-11-15T00:41:03;19.73;;;11.33;;
60730;SDS011;46580;52.114;11.674;2022-11-15T00:43:29;20.77;;;11.23;;
60730;SDS011;46580;52.114;11.674;2022-11-15T00:45:55;20.53;;;11.70;;
60730;SDS011;46580;52.114;11.674;2022-11-15T00:48:21;17.37;;;11.17;;
60730;SDS011;46580;52.114;11.674;2022-11-15T00:50:46;18.50;;;11.03;;
60730;SDS011;46580;52.114;11.674;2022-11-15T00:53:12;20.33;;;11.93;;
60730;SDS011;46580;52.114;11.674;2022-11-15T00:55:37;17.00;;;11.23;;
60730;SDS011;46580;52.114;11.674;2022-11-15T00:58:02;19.00;;;11.47;;
60730;SDS011;46580;52.114;11.674;2022-11-15T01:00:28;17.40;;;10.67;;
60730;SDS011;46580;52.114;11.674;2022-11-15T01:02:53;17.77;;;11.63;;
60730;SDS011;46580;52.114;11.674;2022-11-15T01:05:19;16.27;;;10.37;;
60730;SDS011;46580;52.114;11.674;2022-11-15T01:07:44;18.70;;;11.47;;
60730;SDS011;46580;52.114;11.674;2022-11-15T01:10:10;18.40;;;11.10;;
60730;SDS011;46580;52.114;11.674;2022-11-15T01:12:35;18.10;;;11.03;;
60730;SDS011;46580;52.114;11.674;2022-11-15T01:15:01;17.03;;;10.83;;
60730;SDS011;46580;52.114;11.674;2022-11-15T01:17:27;16.00;;;10.40;;
60730;SDS011;46580;52.114;11.674;2022-11-15T01:19:52;16.87;;;10.57;;
60730;SDS011;46580;52.114;11.674;2022-11-15T01:22:17;18.00;;;10.57;;
60730;SDS011;46580;52.114;11.674;2022-11-15T01:24:43;22.60;;;11.40;;
60730;SDS011;46580;52.114;11.674;2022-11-15T01:27:08;17.50;;;11.20;;
60730;SDS011;46580;52.114;11.674;2022-11-15T01:29:34;17.83;;;11.53;;
60730;SDS011;46580;52.114;11.674;2022-11-15T01:31:59;17.83;;;10.87;;
60730;SDS011;46580;52.114;11.674;2022-11-15T01:34:25;18.50;;;10.77;;
60730;SDS011;46580;52.114;11.674;2022-11-15T01:36:50;18.07;;;11.10;;
60730;SDS011;46580;52.114;11.674;2022-11-15T01:39:15;21.10;;;11.07;;
60730;SDS011;46580;52.114;11.674;2022-11-15T01:41:41;19.70;;;10.87;;
60730;SDS011;46580;52.114;11.674;2022-11-15T01:47:16;20.73;;;11.20;;
60730;SDS011;46580;52.114;11.674;2022-11-15T01:49:55;24.27;;;11.83;;
60730;SDS011;46580;52.114;11.674;2022-11-15T01:52:26;17.30;;;10.13;;
60730;SDS011;46580;52.114;11.674;2022-11-15T01:54:59;19.37;;;10.30;;
60730;SDS011;46580;52.114;11.674;2022-11-15T01:57:34;21.07;;;11.70;;
60730;SDS011;46580;52.114;11.674;2022-11-15T02:00:00;18.40;;;10.87;;
60730;SDS011;46580;52.114;11.674;2022-11-15T02:02:26;19.83;;;12.10;;
60730;SDS011;46580;52.114;11.674;2022-11-15T02:04:52;17.93;;;10.73;;
60730;SDS011;46580;52.114;11.674;2022-11-15T02:07:18;15.33;;;10.63;;
60730;SDS011;46580;52.114;11.674;2022-11-15T02:09:46;19.07;;;11.37;;
60730;SDS011;46580;52.114;11.674;2022-11-15T02:12:13;20.63;;;11.77;;
60730;SDS011;46580;52.114;11.674;2022-11-15T02:14:41;18.37;;;11.03;;
60730;SDS011;46580;52.114;11.674;2022-11-15T02:20:14;18.77;;;11.67;;
60730;SDS011;46580;52.114;11.674;2022-11-15T02:25:41;18.67;;;10.63;;
60730;SDS011;46580;52.114;11.674;2022-11-15T02:28:30;20.50;;;11.83;;
60730;SDS011;46580;52.114;11.674;2022-11-15T02:37:16;22.97;;;13.03;;
60730;SDS011;46580;52.114;11.674;2022-11-15T02:39:51;19.50;;;12.13;;
60730;SDS011;46580;52.114;11.674;2022-11-15T02:42:24;23.27;;;11.93;;
60730;SDS011;46580;52.114;11.674;2022-11-15T02:45:11;17.80;;;11.53;;
60730;SDS011;46580;52.114;11.674;2022-11-15T02:47:42;19.80;;;12.53;;
60730;SDS011;46580;52.114;11.674;2022-11-15T02:50:11;18.80;;;11.20;;
60730;SDS011;46580;52.114;11.674;2022-11-15T02:52:40;19.23;;;11.27;;
60730;SDS011;46580;52.114;11.674;2022-11-15T03:00:59;18.30;;;11.47;;
60730;SDS011;46580;52.114;11.674;2022-11-15T03:06:38;17.93;;;11.53;;
60730;SDS011;46580;52.114;11.674;2022-11-15T03:09:31;20.37;;;11.77;;
60730;SDS011;46580;52.114;11.674;2022-11-15T03:12:09;21.37;;;11.83;;
60730;SDS011;46580;52.114;11.674;2022-11-15T03:14:43;22.60;;;11.93;;
60730;SDS011;46580;52.114;11.674;2022-11-15T03:17:36;21.30;;;12.43;;
60730;SDS011;46580;52.114;11.674;2022-11-15T03:20:09;21.53;;;11.83;;
60730;SDS011;46580;52.114;11.674;2022-11-15T03:22:40;17.33;;;11.03;;
60730;SDS011;46580;52.114;11.674;2022-11-15T03:25:09;20.10;;;11.60;;
60730;SDS011;46580;52.114;11.674;2022-11-15T03:27:40;20.90;;;11.00;;
60730;SDS011;46580;52.114;11.674;2022-11-15T03:30:09;19.17;;;12.33;;
60730;SDS011;46580;52.114;11.674;2022-11-15T03:32:55;20.47;;;12.30;;
60730;SDS011;46580;52.114;11.674;2022-11-15T03:35:23;20.70;;;12.03;;
60730;SDS011;46580;52.114;11.674;2022-11-15T03:40:45;20.20;;;11.03;;
60730;SDS011;46580;52.114;11.674;2022-11-15T03:46:02;21.90;;;12.67;;
60730;SDS011;46580;52.114;11.674;2022-11-15T03:48:52;18.30;;;11.40;;
60730;SDS011;46580;52.114;11.674;2022-11-15T03:51:21;19.50;;;11.77;;
60730;SDS011;46580;52.114;11.674;2022-11-15T03:53:47;17.00;;;10.57;;
60730;SDS011;46580;52.114;11.674;2022-11-15T03:56:13;21.47;;;12.00;;
60730;SDS011;46580;52.114;11.674;2022-11-15T03:58:38;18.83;;;11.73;;
60730;SDS011;46580;52.114;11.674;2022-11-15T04:01:03;21.17;;;11.23;;
60730;SDS011;46580;52.114;11.674;2022-11-15T04:03:29;19.57;;;11.20;;
60730;SDS011;46580;52.114;11.674;2022-11-15T04:05:54;17.63;;;10.73;;
60730;SDS011;46580;52.114;11.674;2022-11-15T04:08:19;17.87;;;10.57;;
60730;SDS011;46580;52.114;11.674;2022-11-15T04:10:45;20.80;;;11.70;;
60730;SDS011;46580;52.114;11.674;2022-11-15T04:13:14;19.20;;;10.30;;
60730;SDS011;46580;52.114;11.674;2022-11-15T04:15:39;19.53;;;11.10;;
60730;SDS011;46580;52.114;11.674;2022-11-15T04:18:04;15.37;;;10.43;;
60730;SDS011;46580;52.114;11.674;2022-11-15T04:20:30;18.90;;;11.57;;
60730;SDS011;46580;52.114;11.674;2022-11-15T04:23:19;20.47;;;11.97;;
60730;SDS011;46580;52.114;11.674;2022-11-15T04:26:05;18.57;;;11.20;;
60730;SDS011;46580;52.114;11.674;2022-11-15T04:28:33;19.23;;;11.07;;
60730;SDS011;46580;52.114;11.674;2022-11-15T04:30:59;21.57;;;10.67;;
60730;SDS011;46580;52.114;11.674;2022-11-15T04:33:24;19.13;;;11.10;;
60730;SDS011;46580;52.114;11.674;2022-11-15T04:35:50;17.63;;;10.73;;
60730;SDS011;46580;52.114;11.674;2022-11-15T04:38:35;17.47;;;10.93;;
60730;SDS011;46580;52.114;11.674;2022-11-15T04:41:02;17.37;;;9.70;;
60730;SDS011;46580;52.114;11.674;2022-11-15T04:43:28;18.53;;;10.70;;
60730;SDS011;46580;52.114;11.674;2022-11-15T04:45:53;22.60;;;12.23;;
60730;SDS011;46580;52.114;11.674;2022-11-15T04:48:19;19.90;;;11.47;;
60730;SDS011;46580;52.114;11.674;2022-11-15T04:50:44;20.57;;;10.67;;
60730;SDS011;46580;52.114;11.674;2022-11-15T04:53:12;17.13;;;10.57;;
60730;SDS011;46580;52.114;11.674;2022-11-15T04:55:37;17.37;;;10.87;;
60730;SDS011;46580;52.114;11.674;2022-11-15T04:58:02;17.67;;;10.53;;
60730;SDS011;46580;52.114;11.674;2022-11-15T05:00:28;20.93;;;11.17;;
60730;SDS011;46580;52.114;11.674;2022-11-15T05:02:54;18.37;;;11.60;;
60730;SDS011;46580;52.114;11.674;2022-11-15T05:05:39;21.33;;;10.93;;
60730;SDS011;46580;52.114;11.674;2022-11-15T05:08:05;21.90;;;12.00;;
60730;SDS011;46580;52.114;11.674;2022-11-15T05:10:31;19.33;;;10.33;;
60730;SDS011;46580;52.114;11.674;2022-11-15T05:12:56;20.77;;;11.27;;
60730;SDS011;46580;52.114;11.674;2022-11-15T05:15:21;20.50;;;11.37;;
60730;SDS011;46580;52.114;11.674;2022-11-15T05:17:47;19.67;;;12.03;;
60730;SDS011;46580;52.114;11.674;2022-11-15T05:20:12;19.80;;;11.17;;
60730;SDS011;46580;52.114;11.674;2022-11-15T05:22:38;21.23;;;12.80;;
60730;SDS011;46580;52.114;11.674;2022-11-15T05:25:04;18.13;;;11.00;;
60730;SDS011;46580;52.114;11.674;2022-11-15T05:27:30;20.00;;;11.63;;
60730;SDS011;46580;52.114;11.674;2022-11-15T05:29:55;21.70;;;11.63;;
60730;SDS011;46580;52.114;11.674;2022-11-15T05:32:20;19.07;;;10.57;;
60730;SDS011;46580;52.114;11.674;2022-11-15T05:34:46;16.73;;;10.67;;
60730;SDS011;46580;52.114;11.674;2022-11-15T05:37:12;23.70;;;11.50;;
60730;SDS011;46580;52.114;11.674;2022-11-15T05:39:38;19.93;;;10.37;;
60730;SDS011;46580;52.114;11.674;2022-11-15T05:42:05;19.63;;;11.27;;
60730;SDS011;46580;52.114;11.674;2022-11-15T05:44:36;18.40;;;10.10;;
60730;SDS011;46580;52.114;11.674;2022-11-15T05:47:03;20.47;;;10.57;;
60730;SDS011;46580;52.114;11.674;2022-11-15T05:49:33;18.30;;;10.63;;
60730;SDS011;46580;52.114;11.674;2022-11-15T05:52:03;20.27;;;11.87;;
60730;SDS011;46580;52.114;11.674;2022-11-15T05:54:32;19.77;;;10.20;;
60730;SDS011;46580;52.114;11.674;2022-11-15T05:56:59;20.40;;;11.83;;
60730;SDS011;46580;52.114;11.674;2022-11-15T05:59:25;17.97;;;10.03;;
60730;SDS011;46580;52.114;11.674;2022-11-15T06:01:52;19.07;;;10.53;;
60730;SDS011;46580;52.114;11.674;2022-11-15T06:04:18;14.43;;;9.67;;
60730;SDS011;46580;52.114;11.674;2022-11-15T06:06:43;20.47;;;10.97;;
60730;SDS011;46580;52.114;11.674;2022-11-15T06:09:09;17.47;;;10.20;;
60730;SDS011;46580;52.114;11.674;2022-11-15T06:11:34;16.27;;;9.80;;
60730;SDS011;46580;52.114;11.674;2022-11-15T06:13:59;19.53;;;10.60;;
60730;SDS011;46580;52.114;11.674;2022-11-15T06:16:25;18.23;;;11.00;;
60730;SDS011;46580;52.114;11.674;2022-11-15T06:18:50;18.27;;;11.17;;
60730;SDS011;46580;52.114;11.674;2022-11-15T06:21:15;17.87;;;10.30;;
60730;SDS011;46580;52.114;11.674;2022-11-15T06:23:41;17.17;;;10.47;;
60730;SDS011;46580;52.114;11.674;2022-11-15T06:26:06;16.20;;;10.73;;
60730;SDS011;46580;52.114;11.674;2022-11-15T06:28:32;16.53;;;9.60;;
60730;SDS011;46580;52.114;11.674;2022-11-15T06:31:04;17.60;;;11.33;;
60730;SDS011;46580;52.114;11.674;2022-11-15T06:33:31;17.57;;;10.77;;
60730;SDS011;46580;52.114;11.674;2022-11-15T06:35:59;18.70;;;11.40;;
60730;SDS011;46580;52.114;11.674;2022-11-15T06:38:26;19.77;;;11.10;;
60730;SDS011;46580;52.114;11.674;2022-11-15T06:40:51;16.07;;;9.83;;
60730;SDS011;46580;52.114;11.674;2022-11-15T06:43:17;19.73;;;11.00;;
60730;SDS011;46580;52.114;11.674;2022-11-15T06:45:42;17.53;;;10.33;;
60730;SDS011;46580;52.114;11.674;2022-11-15T06:48:07;20.53;;;11.37;;
60730;SDS011;46580;52.114;11.674;2022-11-15T06:50:33;17.03;;;11.17;;
60730;SDS011;46580;52.114;11.674;2022-11-15T06:53:02;17.33;;;10.57;;
60730;SDS011;46580;52.114;11.674;2022-11-15T06:55:28;19.80;;;9.97;;
60730;SDS011;46580;52.114;11.674;2022-11-15T06:57:54;15.83;;;10.33;;
60730;SDS011;46580;52.114;11.674;2022-11-15T07:00:20;19.00;;;10.20;;
60730;SDS011;46580;52.114;11.674;2022-11-15T07:02:46;16.00;;;9.77;;
60730;SDS011;46580;52.114;11.674;2022-11-15T07:05:12;19.60;;;9.67;;
60730;SDS011;46580;52.114;11.674;2022-11-15T07:07:38;16.63;;;9.37;;
60730;SDS011;46580;52.114;11.674;2022-11-15T07:10:04;17.53;;;9.40;;
60730;SDS011;46580;52.114;11.674;2022-11-15T07:12:30;16.77;;;10.20;;
60730;SDS011;46580;52.114;11.674;2022-11-15T07:14:56;16.53;;;9.47;;
60730;SDS011;46580;52.114;11.674;2022-11-15T07:17:21;14.50;;;9.97;;
60730;SDS011;46580;52.114;11.674;2022-11-15T07:19:46;17.03;;;9.73;;
60730;SDS011;46580;52.114;11.674;2022-11-15T07:22:12;15.13;;;9.50;;
60730;SDS011;46580;52.114;11.674;2022-11-15T07:24:37;15.33;;;10.10;;
60730;SDS011;46580;52.114;11.674;2022-11-15T07:27:02;16.67;;;9.70;;
60730;SDS011;46580;52.114;11.674;2022-11-15T07:29:28;16.63;;;9.90;;
60730;SDS011;46580;52.114;11.674;2022-11-15T07:31:53;14.07;;;9.53;;
60730;SDS011;46580;52.114;11.674;2022-11-15T07:34:19;17.73;;;9.57;;
60730;SDS011;46580;52.114;11.674;2022-11-15T07:36:44;17.47;;;9.83;;
60730;SDS011;46580;52.114;11.674;2022-11-15T07:39:10;16.73;;;10.53;;
60730;SDS011;46580;52.114;11.674;2022-11-15T07:41:37;15.73;;;10.00;;
60730;SDS011;46580;52.114;11.674;2022-11-15T07:44:03;18.63;;;9.80;;
60730;SDS011;46580;52.114;11.674;2022-11-15T07:46:29;15.13;;;8.90;;
60730;SDS011;46580;52.114;11.674;2022-11-15T07:48:54;17.00;;;9.40;;
60730;SDS011;46580;52.114;11.674;2022-11-15T07:51:19;14.07;;;9.43;;
60730;SDS011;46580;52.114;11.674;2022-11-15T07:53:45;15.73;;;10.20;;
60730;SDS011;46580;52.114;11.674;2022-11-15T07:56:10;20.30;;;9.80;;
60730;SDS011;46580;52.114;11.674;2022-11-15T07:58:36;16.20;;;10.47;;
60730;SDS011;46580;52.114;11.674;2022-11-15T08:01:03;16.07;;;9.53;;
60730;SDS011;46580;52.114;11.674;2022-11-15T08:03:29;13.80;;;9.47;;
60730;SDS011;46580;52.114;11.674;2022-11-15T08:05:54;16.13;;;10.27;;
60730;SDS011;46580;52.114;11.674;2022-11-15T08:08:19;15.53;;;10.10;;
60730;SDS011;46580;52.114;11.674;2022-11-15T08:10:45;15.27;;;9.80;;
60730;SDS011;46580;52.114;11.674;2022-11-15T08:13:11;16.23;;;10.00;;
60730;SDS011;46580;52.114;11.674;2022-11-15T08:15:37;14.33;;;8.47;;
60730;SDS011;46580;52.114;11.674;2022-11-15T08:18:04;15.20;;;8.87;;
60730;SDS011;46580;52.114;11.674;2022-11-15T08:20:32;16.03;;;8.47;;
60730;SDS011;46580;52.114;11.674;2022-11-15T08:23:00;15.77;;;8.13;;
60730;SDS011;46580;52.114;11.674;2022-11-15T08:25:26;13.73;;;8.73;;
60730;SDS011;46580;52.114;11.674;2022-11-15T08:27:53;18.23;;;9.13;;
60730;SDS011;46580;52.114;11.674;2022-11-15T08:30:19;12.23;;;8.17;;
60730;SDS011;46580;52.114;11.674;2022-11-15T08:32:46;13.13;;;8.73;;
60730;SDS011;46580;52.114;11.674;2022-11-15T08:35:12;15.97;;;8.27;;
60730;SDS011;46580;52.114;11.674;2022-11-15T08:37:37;14.13;;;8.37;;
60730;SDS011;46580;52.114;11.674;2022-11-15T08:40:03;14.13;;;8.43;;
60730;SDS011;46580;52.114;11.674;2022-11-15T08:42:29;14.33;;;8.20;;
60730;SDS011;46580;52.114;11.674;2022-11-15T08:44:55;12.20;;;8.40;;
60730;SDS011;46580;52.114;11.674;2022-11-15T08:47:20;15.40;;;8.63;;
60730;SDS011;46580;52.114;11.674;2022-11-15T08:49:45;15.83;;;8.10;;
60730;SDS011;46580;52.114;11.674;2022-11-15T08:52:11;13.20;;;8.03;;
60730;SDS011;46580;52.114;11.674;2022-11-15T08:54:36;12.93;;;7.73;;
60730;SDS011;46580;52.114;11.674;2022-11-15T08:57:02;13.80;;;8.50;;
60730;SDS011;46580;52.114;11.674;2022-11-15T08:59:27;11.40;;;8.00;;
60730;SDS011;46580;52.114;11.674;2022-11-15T09:01:53;13.70;;;7.53;;
60730;SDS011;46580;52.114;11.674;2022-11-15T09:04:18;11.13;;;7.93;;
60730;SDS011;46580;52.114;11.674;2022-11-15T09:06:43;13.13;;;7.67;;
60730;SDS011;46580;52.114;11.674;2022-11-15T09:09:09;11.77;;;7.83;;
60730;SDS011;46580;52.114;11.674;2022-11-15T09:11:34;13.23;;;7.90;;
60730;SDS011;46580;52.114;11.674;2022-11-15T09:14:00;12.33;;;8.03;;
60730;SDS011;46580;52.114;11.674;2022-11-15T09:16:25;12.07;;;7.67;;
60730;SDS011;46580;52.114;11.674;2022-11-15T09:18:51;11.63;;;8.07;;
60730;SDS011;46580;52.114;11.674;2022-11-15T09:21:18;12.83;;;8.43;;
60730;SDS011;46580;52.114;11.674;2022-11-15T09:23:44;11.73;;;7.43;;
60730;SDS011;46580;52.114;11.674;2022-11-15T09:26:09;12.53;;;7.10;;
60730;SDS011;46580;52.114;11.674;2022-11-15T09:28:35;15.30;;;8.77;;
60730;SDS011;46580;52.114;11.674;2022-11-15T09:31:03;12.43;;;7.70;;
60730;SDS011;46580;52.114;11.674;2022-11-15T09:33:30;14.13;;;7.83;;
60730;SDS011;46580;52.114;11.674;2022-11-15T09:36:03;12.10;;;7.50;;
60730;SDS011;46580;52.114;11.674;2022-11-15T09:38:31;11.13;;;7.17;;
60730;SDS011;46580;52.114;11.674;2022-11-15T09:41:05;10.43;;;6.70;;
60730;SDS011;46580;52.114;11.674;2022-11-15T09:49:02;10.13;;;7.03;;
60730;SDS011;46580;52.114;11.674;2022-11-15T09:57:45;14.47;;;7.43;;
60730;SDS011;46580;52.114;11.674;2022-11-15T10:04:49;10.83;;;6.60;;
60730;SDS011;46580;52.114;11.674;2022-11-15T10:10:27;9.00;;;5.27;;
60730;SDS011;46580;52.114;11.674;2022-11-15T10:13:00;8.73;;;6.57;;
60730;SDS011;46580;52.114;11.674;2022-11-15T10:15:26;11.27;;;5.87;;
60730;SDS011;46580;52.114;11.674;2022-11-15T10:20:49;12.17;;;5.90;;
60730;SDS011;46580;52.114;11.674;2022-11-15T10:23:18;11.10;;;6.07;;
60730;SDS011;46580;52.114;11.674;2022-11-15T10:25:45;7.27;;;5.53;;
60730;SDS011;46580;52.114;11.674;2022-11-15T10:30:50;8.73;;;5.70;;
60730;SDS011;46580;52.114;11.674;2022-11-15T10:39:13;8.67;;;5.63;;
60730;SDS011;46580;52.114;11.674;2022-11-15T10:41:37;7.93;;;5.30;;
60730;SDS011;46580;52.114;11.674;2022-11-15T10:46:42;9.43;;;4.80;;
60730;SDS011;46580;52.114;11.674;2022-11-15T10:54:22;7.60;;;4.83;;
60730;SDS011;46580;52.114;11.674;2022-11-15T10:56:50;7.57;;;5.30;;
60730;SDS011;46580;52.114;11.674;2022-11-15T10:59:23;8.33;;;5.27;;
60730;SDS011;46580;52.114;11.674;2022-11-15T11:01:50;7.97;;;5.07;;
60730;SDS011;46580;52.114;11.674;2022-11-15T11:04:16;8.43;;;4.93;;
60730;SDS011;46580;52.114;11.674;2022-11-15T11:11:49;9.17;;;5.03;;
60730;SDS011;46580;52.114;11.674;2022-11-15T11:14:23;8.03;;;4.50;;
60730;SDS011;46580;52.114;11.674;2022-11-15T11:20:00;6.53;;;4.40;;
60730;SDS011;46580;52.114;11.674;2022-11-15T11:22:50;8.00;;;4.27;;
60730;SDS011;46580;52.114;11.674;2022-11-15T11:47:09;6.03;;;3.97;;
60730;SDS011;46580;52.114;11.674;2022-11-15T11:49:42;8.20;;;4.00;;
60730;SDS011;46580;52.114;11.674;2022-11-15T11:52:17;7.73;;;3.80;;
60730;SDS011;46580;52.114;11.674;2022-11-15T12:00:09;6.90;;;3.70;;
60730;SDS011;46580;52.114;11.674;2022-11-15T12:02:43;5.30;;;3.90;;
60730;SDS011;46580;52.114;11.674;2022-11-15T12:05:18;8.43;;;4.67;;
60730;SDS011;46580;52.114;11.674;2022-11-15T12:07:52;7.00;;;4.23;;
60730;SDS011;46580;52.114;11.674;2022-11-15T12:10:25;6.60;;;4.23;;
60730;SDS011;46580;52.114;11.674;2022-11-15T12:15:31;5.70;;;4.37;;
60730;SDS011;46580;52.114;11.674;2022-11-15T12:18:00;9.43;;;4.30;;
60730;SDS011;46580;52.114;11.674;2022-11-15T12:20:27;8.50;;;5.07;;
60730;SDS011;46580;52.114;11.674;2022-11-15T12:23:03;9.40;;;4.60;;
60730;SDS011;46580;52.114;11.674;2022-11-15T12:33:42;6.23;;;3.67;;
60730;SDS011;46580;52.114;11.674;2022-11-15T12:36:29;6.30;;;3.53;;
60730;SDS011;46580;52.114;11.674;2022-11-15T12:43:59;7.67;;;3.17;;
60730;SDS011;46580;52.114;11.674;2022-11-15T12:51:20;6.03;;;4.13;;
60730;SDS011;46580;52.114;11.674;2022-11-15T12:53:47;5.23;;;3.83;;
60730;SDS011;46580;52.114;11.674;2022-11-15T13:04:08;7.73;;;4.10;;
60730;SDS011;46580;52.114;11.674;2022-11-15T13:11:55;9.30;;;4.30;;
60730;SDS011;46580;52.114;11.674;2022-11-15T13:19:48;7.50;;;4.03;;
60730;SDS011;46580;52.114;11.674;2022-11-15T13:22:18;6.17;;;3.37;;
60730;SDS011;46580;52.114;11.674;2022-11-15T13:25:02;6.23;;;3.53;;
60730;SDS011;46580;52.114;11.674;2022-11-15T13:27:28;5.77;;;4.00;;
60730;SDS011;46580;52.114;11.674;2022-11-15T13:29:54;8.87;;;4.70;;
60730;SDS011;46580;52.114;11.674;2022-11-15T13:32:19;4.37;;;3.17;;
60730;SDS011;46580;52.114;11.674;2022-11-15T13:34:45;6.07;;;3.97;;
60730;SDS011;46580;52.114;11.674;2022-11-15T13:37:34;4.90;;;3.80;;
60730;SDS011;46580;52.114;11.674;2022-11-15T13:42:52;7.40;;;4.17;;
60730;SDS011;46580;52.114;11.674;2022-11-15T13:45:18;9.57;;;4.20;;
60730;SDS011;46580;52.114;11.674;2022-11-15T13:47:47;4.30;;;3.70;;
60730;SDS011;46580;52.114;11.674;2022-11-15T13:50:16;6.03;;;3.73;;
60730;SDS011;46580;52.114;11.674;2022-11-15T13:52:42;7.47;;;4.30;;
60730;SDS011;46580;52.114;11.674;2022-11-15T13:55:18;7.53;;;4.13;;
60730;SDS011;46580;52.114;11.674;2022-11-15T13:58:02;9.00;;;3.80;;
60730;SDS011;46580;52.114;11.674;2022-11-15T14:03:18;5.40;;;3.90;;
60730;SDS011;46580;52.114;11.674;2022-11-15T14:05:44;5.73;;;3.57;;
60730;SDS011;46580;52.114;11.674;2022-11-15T14:08:26;6.63;;;4.47;;
60730;SDS011;46580;52.114;11.674;2022-11-15T14:11:08;6.33;;;3.57;;
60730;SDS011;46580;52.114;11.674;2022-11-15T14:13:38;8.37;;;3.80;;
60730;SDS011;46580;52.114;11.674;2022-11-15T14:18:46;7.60;;;6.27;;
60730;SDS011;46580;52.114;11.674;2022-11-15T14:21:12;7.67;;;6.13;;
60730;SDS011;46580;52.114;11.674;2022-11-15T14:23:37;4.50;;;3.87;;
60730;SDS011;46580;52.114;11.674;2022-11-15T14:26:03;11.40;;;4.23;;
60730;SDS011;46580;52.114;11.674;2022-11-15T14:28:33;11.27;;;5.70;;
60730;SDS011;46580;52.114;11.674;2022-11-15T14:31:04;6.70;;;4.40;;
60730;SDS011;46580;52.114;11.674;2022-11-15T14:33:36;6.47;;;4.23;;
60730;SDS011;46580;52.114;11.674;2022-11-15T14:36:04;6.20;;;3.90;;
60730;SDS011;46580;52.114;11.674;2022-11-15T14:38:30;6.90;;;3.67;;
60730;SDS011;46580;52.114;11.674;2022-11-15T14:40:59;4.40;;;3.70;;
60730;SDS011;46580;52.114;11.674;2022-11-15T14:43:24;5.40;;;3.97;;
60730;SDS011;46580;52.114;11.674;2022-11-15T14:45:50;6.43;;;4.00;;
60730;SDS011;46580;52.114;11.674;2022-11-15T14:48:15;4.47;;;3.50;;
60730;SDS011;46580;52.114;11.674;2022-11-15T14:50:41;5.87;;;3.60;;
60730;SDS011;46580;52.114;11.674;2022-11-15T14:53:06;5.07;;;3.50;;
60730;SDS011;46580;52.114;11.674;2022-11-15T14:55:35;5.07;;;3.57;;
60730;SDS011;46580;52.114;11.674;2022-11-15T14:58:01;7.87;;;3.70;;
60730;SDS011;46580;52.114;11.674;2022-11-15T15:00:28;5.10;;;3.30;;
60730;SDS011;46580;52.114;11.674;2022-11-15T15:02:55;4.27;;;3.57;;
60730;SDS011;46580;52.114;11.674;2022-11-15T15:05:23;6.10;;;3.20;;
60730;SDS011;46580;52.114;11.674;2022-11-15T15:07:48;6.50;;;3.43;;
60730;SDS011;46580;52.114;11.674;2022-11-15T15:10:15;7.10;;;3.33;;
60730;SDS011;46580;52.114;11.674;2022-11-15T15:12:41;7.53;;;3.97;;
60730;SDS011;46580;52.114;11.674;2022-11-15T15:15:23;5.20;;;4.00;;
60730;SDS011;46580;52.114;11.674;2022-11-15T15:17:50;7.60;;;4.60;;
60730;SDS011;46580;52.114;11.674;2022-11-15T15:20:16;5.53;;;4.40;;
60730;SDS011;46580;52.114;11.674;2022-11-15T15:22:41;5.90;;;3.67;;
60730;SDS011;46580;52.114;11.674;2022-11-15T15:27:53;8.10;;;4.90;;
60730;SDS011;46580;52.114;11.674;2022-11-15T15:30:19;7.83;;;4.30;;
60730;SDS011;46580;52.114;11.674;2022-11-15T15:32:45;6.83;;;3.80;;
60730;SDS011;46580;52.114;11.674;2022-11-15T15:35:13;5.73;;;3.60;;
60730;SDS011;46580;52.114;11.674;2022-11-15T15:37:40;6.93;;;4.07;;
60730;SDS011;46580;52.114;11.674;2022-11-15T15:40:19;5.00;;;3.37;;
60730;SDS011;46580;52.114;11.674;2022-11-15T15:42:46;4.77;;;3.50;;
60730;SDS011;46580;52.114;11.674;2022-11-15T15:45:12;5.20;;;3.23;;
60730;SDS011;46580;52.114;11.674;2022-11-15T15:47:38;5.40;;;3.90;;
60730;SDS011;46580;52.114;11.674;2022-11-15T15:52:55;6.00;;;3.67;;
60730;SDS011;46580;52.114;11.674;2022-11-15T15:55:22;5.00;;;3.80;;
60730;SDS011;46580;52.114;11.674;2022-11-15T15:57:48;8.43;;;4.63;;
60730;SDS011;46580;52.114;11.674;2022-11-15T16:00:14;5.13;;;3.47;;
60730;SDS011;46580;52.114;11.674;2022-11-15T16:02:40;4.60;;;3.63;;
60730;SDS011;46580;52.114;11.674;2022-11-15T16:05:06;8.60;;;5.73;;
60730;SDS011;46580;52.114;11.674;2022-11-15T16:07:32;8.20;;;5.70;;
60730;SDS011;46580;52.114;11.674;2022-11-15T16:09:58;6.57;;;4.27;;
60730;SDS011;46580;52.114;11.674;2022-11-15T16:12:35;5.97;;;3.70;;
60730;SDS011;46580;52.114;11.674;2022-11-15T16:15:01;8.10;;;4.17;;
60730;SDS011;46580;52.114;11.674;2022-11-15T16:17:31;7.33;;;4.20;;
60730;SDS011;46580;52.114;11.674;2022-11-15T16:20:00;9.17;;;5.00;;
60730;SDS011;46580;52.114;11.674;2022-11-15T16:22:26;8.33;;;4.30;;
60730;SDS011;46580;52.114;11.674;2022-11-15T16:24:54;13.93;;;4.83;;
60730;SDS011;46580;52.114;11.674;2022-11-15T16:27:20;12.07;;;5.13;;
60730;SDS011;46580;52.114;11.674;2022-11-15T16:29:46;13.80;;;8.40;;
60730;SDS011;46580;52.114;11.674;2022-11-15T16:32:12;19.97;;;13.20;;
60730;SDS011;46580;52.114;11.674;2022-11-15T16:34:38;19.93;;;12.43;;
60730;SDS011;46580;52.114;11.674;2022-11-15T16:37:04;13.53;;;7.67;;
60730;SDS011;46580;52.114;11.674;2022-11-15T16:39:30;12.07;;;6.73;;
60730;SDS011;46580;52.114;11.674;2022-11-15T16:41:56;10.80;;;6.80;;
60730;SDS011;46580;52.114;11.674;2022-11-15T16:44:22;10.10;;;6.50;;
60730;SDS011;46580;52.114;11.674;2022-11-15T16:46:49;10.57;;;6.20;;
60730;SDS011;46580;52.114;11.674;2022-11-15T16:49:16;10.23;;;5.73;;
60730;SDS011;46580;52.114;11.674;2022-11-15T16:51:44;12.20;;;6.17;;
60730;SDS011;46580;52.114;11.674;2022-11-15T16:54:10;10.73;;;6.73;;
60730;SDS011;46580;52.114;11.674;2022-11-15T16:56:36;11.77;;;7.63;;
60730;SDS011;46580;52.114;11.674;2022-11-15T16:59:02;15.30;;;7.10;;
60730;SDS011;46580;52.114;11.674;2022-11-15T17:01:37;15.63;;;7.40;;